createdAt,value
2017-01-28T00:00:01.693Z,92.46
2017-01-28T00:00:30.346Z,92.65
2017-01-28T00:00:59.611Z,92.74
2017-01-28T00:01:28.167Z,92.46
2017-01-28T00:01:56.777Z,92.26
2017-01-28T00:02:25.373Z,92.74
2017-01-28T00:02:53.980Z,92.65
2017-01-28T00:03:22.539Z,93.13
2017-01-28T00:03:51.052Z,93.32
2017-01-28T00:04:19.644Z,93.13
2017-01-28T00:04:48.202Z,93.32
2017-01-28T00:05:16.637Z,93.23
2017-01-28T00:05:45.359Z,93.71
2017-01-28T00:06:13.880Z,93.32
2017-01-28T00:06:42.386Z,93.62
2017-01-28T00:07:11.017Z,93.42
2017-01-28T00:07:39.524Z,93.52
2017-01-28T00:08:08.160Z,93.52
2017-01-28T00:08:36.702Z,93.23
2017-01-28T00:09:05.319Z,93.37
2017-01-28T00:09:33.926Z,93.85
2017-01-28T00:10:02.438Z,94.15
2017-01-28T00:10:31.073Z,94.05
2017-01-28T00:10:59.707Z,94
2017-01-28T00:11:28.324Z,94.05
2017-01-28T00:11:56.779Z,94.2
2017-01-28T00:12:25.327Z,94.34
2017-01-28T00:12:53.965Z,94.29
2017-01-28T00:13:22.592Z,94.2
2017-01-28T00:13:51.206Z,94.38
2017-01-28T00:14:19.767Z,93.9
2017-01-28T00:14:48.371Z,93.85
2017-01-28T00:15:16.888Z,93.9
2017-01-28T00:15:45.399Z,94.1
2017-01-28T00:16:14.011Z,94.29
2017-01-28T00:16:42.529Z,93.9
2017-01-28T00:17:11.149Z,93.8
2017-01-28T00:17:39.772Z,93.71
2017-01-28T00:18:08.302Z,93.32
2017-01-28T00:18:36.833Z,93.32
2017-01-28T00:19:05.343Z,93.71
2017-01-28T00:19:33.881Z,93.13
2017-01-28T00:20:02.511Z,93.42
2017-01-28T00:20:30.956Z,93.71
2017-01-28T00:20:59.591Z,93.52
2017-01-28T00:21:28.259Z,93.32
2017-01-28T00:21:56.795Z,93.71
2017-01-28T00:22:25.542Z,93.42
2017-01-28T00:22:54.178Z,93.71
2017-01-28T00:23:22.694Z,93.42
2017-01-28T00:23:51.095Z,93.52
2017-01-28T00:24:19.606Z,93.52
2017-01-28T00:24:48.227Z,93.76
2017-01-28T00:25:16.842Z,94.29
2017-01-28T00:25:45.402Z,94.43
2017-01-28T00:26:14.022Z,94.53
2017-01-28T00:26:42.668Z,94.82
2017-01-28T00:27:11.282Z,94.53
2017-01-28T00:27:39.814Z,95.01
2017-01-28T00:28:08.338Z,94.82
2017-01-28T00:28:36.948Z,95.01
2017-01-28T00:29:05.558Z,94.92
2017-01-28T00:29:34.172Z,94.92
2017-01-28T00:30:02.712Z,94.92
2017-01-28T00:30:31.151Z,95.69
2017-01-28T00:30:59.684Z,95.59
2017-01-28T00:31:28.300Z,95.21
2017-01-28T00:31:56.939Z,95.01
2017-01-28T00:32:25.380Z,95.01
2017-01-28T00:32:53.997Z,95.88
2017-01-28T00:33:22.506Z,95.69
2017-01-28T00:33:51.135Z,94.92
2017-01-28T00:34:19.740Z,94.82
2017-01-28T00:34:48.343Z,95.21
2017-01-28T00:35:16.991Z,95.11
2017-01-28T00:35:45.432Z,95.01
2017-01-28T00:36:14.060Z,95.11
2017-01-28T00:36:42.676Z,95.79
2017-01-28T00:37:11.281Z,95.11
2017-01-28T00:37:39.870Z,95.31
2017-01-28T00:38:08.521Z,95.59
2017-01-28T00:38:37.044Z,95.31
2017-01-28T00:39:05.661Z,95.79
2017-01-28T00:39:34.274Z,95.4
2017-01-28T00:40:02.886Z,95.36
2017-01-28T00:40:31.409Z,95.36
2017-01-28T00:41:00.048Z,95.84
2017-01-28T00:41:28.565Z,95.64
2017-01-28T00:41:57.145Z,95.74
2017-01-28T00:42:25.729Z,95.36
2017-01-28T00:42:54.314Z,95.64
2017-01-28T00:43:23.020Z,95.59
2017-01-28T00:43:51.640Z,95.4
2017-01-28T00:44:20.259Z,95.5
2017-01-28T00:44:48.928Z,95.26
2017-01-28T00:45:17.513Z,95.45
2017-01-28T00:45:46.131Z,95.74
2017-01-28T00:46:14.756Z,95.4
2017-01-28T00:46:43.201Z,95.4
2017-01-28T00:47:11.822Z,95.4
2017-01-28T00:47:40.357Z,95.88
2017-01-28T00:48:08.983Z,95.79
2017-01-28T00:48:37.629Z,95.79
2017-01-28T00:49:06.230Z,95.84
2017-01-28T00:49:34.831Z,95.79
2017-01-28T00:50:03.445Z,95.5
2017-01-28T00:50:31.939Z,95.79
2017-01-28T00:51:00.553Z,95.79
2017-01-28T00:51:29.071Z,95.79
2017-01-28T00:51:57.570Z,95.69
2017-01-28T00:52:26.202Z,95.4
2017-01-28T00:52:54.802Z,95.5
2017-01-28T00:53:23.389Z,95.5
2017-01-28T00:53:52.024Z,95.01
2017-01-28T00:54:20.580Z,95.01
2017-01-28T00:54:49.194Z,95.5
2017-01-28T00:55:17.832Z,95.59
2017-01-28T00:55:46.442Z,95.59
2017-01-28T00:56:15.060Z,95.59
2017-01-28T00:56:43.632Z,95.59
2017-01-28T00:57:12.261Z,95.5
2017-01-28T00:57:40.879Z,95.45
2017-01-28T00:58:09.507Z,95.5
2017-01-28T00:58:38.110Z,95.4
2017-01-28T00:59:06.712Z,95.26
2017-01-28T00:59:35.299Z,95.88
2017-01-28T01:00:03.758Z,95.69
2017-01-28T01:00:32.406Z,95.59
2017-01-28T01:01:01.000Z,95.31
2017-01-28T01:01:29.601Z,95.59
2017-01-28T01:01:58.232Z,95.93
2017-01-28T01:02:26.883Z,95.88
2017-01-28T01:02:55.506Z,95.93
2017-01-28T01:03:24.125Z,95.88
2017-01-28T01:03:52.760Z,95.79
2017-01-28T01:04:21.311Z,96.27
2017-01-28T01:04:49.950Z,96.08
2017-01-28T01:05:18.600Z,95.79
2017-01-28T01:05:47.213Z,95.79
2017-01-28T01:06:15.792Z,96.12
2017-01-28T01:06:44.431Z,95.88
2017-01-28T01:07:13.064Z,95.79
2017-01-28T01:07:41.679Z,96.03
2017-01-28T01:08:10.287Z,96.03
2017-01-28T01:08:38.911Z,95.88
2017-01-28T01:09:07.516Z,96.17
2017-01-28T01:09:36.050Z,96.08
2017-01-28T01:10:04.645Z,95.98
2017-01-28T01:10:33.168Z,96.08
2017-01-28T01:11:01.796Z,95.98
2017-01-28T01:11:30.325Z,96.08
2017-01-28T01:11:58.930Z,96.27
2017-01-28T01:12:27.542Z,95.69
2017-01-28T01:12:56.168Z,95.98
2017-01-28T01:13:24.786Z,95.79
2017-01-28T01:13:53.292Z,95.98
2017-01-28T01:14:21.897Z,95.79
2017-01-28T01:14:50.487Z,95.59
2017-01-28T01:15:19.096Z,95.59
2017-01-28T01:15:47.698Z,95.59
2017-01-28T01:16:16.228Z,95.31
2017-01-28T01:16:44.856Z,95.31
2017-01-28T01:17:13.373Z,95.88
2017-01-28T01:17:41.963Z,95.79
2017-01-28T01:18:10.595Z,96.27
2017-01-28T01:18:39.211Z,95.88
2017-01-28T01:19:07.835Z,96.51
2017-01-28T01:19:36.254Z,96.51
2017-01-28T01:20:04.922Z,96.8
2017-01-28T01:20:33.512Z,96.7
2017-01-28T01:21:02.180Z,96.99
2017-01-28T01:21:30.688Z,97.19
2017-01-28T01:21:59.305Z,97.47
2017-01-28T01:22:27.953Z,97.38
2017-01-28T01:22:56.564Z,97.19
2017-01-28T01:23:25.096Z,97.38
2017-01-28T01:23:53.679Z,97.28
2017-01-28T01:24:22.338Z,97.38
2017-01-28T01:24:50.851Z,97.38
2017-01-28T01:25:19.447Z,97.77
2017-01-28T01:25:48.036Z,97.38
2017-01-28T01:26:16.558Z,97.57
2017-01-28T01:26:45.179Z,97.47
2017-01-28T01:27:13.732Z,97.28
2017-01-28T01:27:42.256Z,97.19
2017-01-28T01:28:10.900Z,97.38
2017-01-28T01:28:39.496Z,97.28
2017-01-28T01:29:08.053Z,97.57
2017-01-28T01:29:36.604Z,97.86
2017-01-28T01:30:05.225Z,97.09
2017-01-28T01:30:33.784Z,97.47
2017-01-28T01:31:02.306Z,97.47
2017-01-28T01:31:30.912Z,97.67
2017-01-28T01:31:59.422Z,97.67
2017-01-28T01:32:28.049Z,98.15
2017-01-28T01:32:56.583Z,98.34
2017-01-28T01:33:25.223Z,98.54
2017-01-28T01:33:53.731Z,97.86
2017-01-28T01:34:22.160Z,98.54
2017-01-28T01:34:50.798Z,97.96
2017-01-28T01:35:19.405Z,98.25
2017-01-28T01:35:48.054Z,97.57
2017-01-28T01:36:16.571Z,97.67
2017-01-28T01:36:45.091Z,97.67
2017-01-28T01:37:13.704Z,97.77
2017-01-28T01:37:42.326Z,97.67
2017-01-28T01:38:11.205Z,97.96
2017-01-28T01:38:39.838Z,97.86
2017-01-28T01:39:08.448Z,97.57
2017-01-28T01:39:36.984Z,97.77
2017-01-28T01:40:05.601Z,97.96
2017-01-28T01:40:34.235Z,97.96
2017-01-28T01:41:02.889Z,97.67
2017-01-28T01:41:31.602Z,97.62
2017-01-28T01:42:00.209Z,97.72
2017-01-28T01:42:28.711Z,97.52
2017-01-28T01:42:57.342Z,97.42
2017-01-28T01:43:25.950Z,96.75
2017-01-28T01:43:54.490Z,96.84
2017-01-28T01:44:23.130Z,97.04
2017-01-28T01:44:51.725Z,97.52
2017-01-28T01:45:20.349Z,97.52
2017-01-28T01:45:48.938Z,97.47
2017-01-28T01:46:17.506Z,97.52
2017-01-28T01:46:46.040Z,97.47
2017-01-28T01:47:14.678Z,97.19
2017-01-28T01:47:43.177Z,97.47
2017-01-28T01:48:11.810Z,97.86
2017-01-28T01:48:40.363Z,97.57
2017-01-28T01:49:08.950Z,97.47
2017-01-28T01:49:37.284Z,97.77
2017-01-28T01:50:05.894Z,97.47
2017-01-28T01:50:34.518Z,97.57
2017-01-28T01:51:03.118Z,97.86
2017-01-28T01:51:31.636Z,98.25
2017-01-28T01:52:00.170Z,98.73
2017-01-28T01:52:28.774Z,98.44
2017-01-28T01:52:57.370Z,98.63
2017-01-28T01:53:25.961Z,97.96
2017-01-28T01:53:54.587Z,98.25
2017-01-28T01:54:23.218Z,98.54
2017-01-28T01:54:51.837Z,98.63
2017-01-28T01:55:20.386Z,98.44
2017-01-28T01:55:48.989Z,98.25
2017-01-28T01:56:17.607Z,98.05
2017-01-28T01:56:46.118Z,98.44
2017-01-28T01:57:14.561Z,98.63
2017-01-28T01:57:43.182Z,98.44
2017-01-28T01:58:11.766Z,98.63
2017-01-28T01:58:40.375Z,98.73
2017-01-28T01:59:08.997Z,98.05
2017-01-28T01:59:37.619Z,98.15
2017-01-28T02:00:06.235Z,97.86
2017-01-28T02:00:34.870Z,97.96
2017-01-28T02:01:03.409Z,98.63
2017-01-28T02:01:32.030Z,98.73
2017-01-28T02:02:00.548Z,98.54
2017-01-28T02:02:29.142Z,97.77
2017-01-28T02:02:57.751Z,97.86
2017-01-28T02:03:26.399Z,97.86
2017-01-28T02:03:54.996Z,98.25
2017-01-28T02:04:23.610Z,98.44
2017-01-28T02:04:52.227Z,98.34
2017-01-28T02:05:20.857Z,98.15
2017-01-28T02:05:49.498Z,98.15
2017-01-28T02:06:18.159Z,97.96
2017-01-28T02:06:46.806Z,98.05
2017-01-28T02:07:15.431Z,98.25
2017-01-28T02:07:44.051Z,98.05
2017-01-28T02:08:12.657Z,97.57
2017-01-28T02:08:41.288Z,97.47
2017-01-28T02:09:09.923Z,97.28
2017-01-28T02:09:38.521Z,97.47
2017-01-28T02:10:07.158Z,97.57
2017-01-28T02:10:35.775Z,97.77
2017-01-28T02:11:04.229Z,97.86
2017-01-28T02:11:32.851Z,97.57
2017-01-28T02:12:01.442Z,97.67
2017-01-28T02:12:30.135Z,98.15
2017-01-28T02:12:58.762Z,98.15
2017-01-28T02:13:27.360Z,97.77
2017-01-28T02:13:55.956Z,98.54
2017-01-28T02:14:24.569Z,97.77
2017-01-28T02:14:53.209Z,97.67
2017-01-28T02:15:21.834Z,98.34
2017-01-28T02:15:50.414Z,98.15
2017-01-28T02:16:19.034Z,98.15
2017-01-28T02:16:47.663Z,98.05
2017-01-28T02:17:16.313Z,98.05
2017-01-28T02:17:44.835Z,98.25
2017-01-28T02:18:13.456Z,98.34
2017-01-28T02:18:41.856Z,98.15
2017-01-28T02:19:10.405Z,98.15
2017-01-28T02:19:39.030Z,98.15
2017-01-28T02:20:07.541Z,98.05
2017-01-28T02:20:36.146Z,98.05
2017-01-28T02:21:04.676Z,98.05
2017-01-28T02:21:33.305Z,98.15
2017-01-28T02:22:01.929Z,98.34
2017-01-28T02:22:30.546Z,98.54
2017-01-28T02:22:59.157Z,98.54
2017-01-28T02:23:27.682Z,98.73
2017-01-28T02:23:56.292Z,97.96
2017-01-28T02:24:24.806Z,98.63
2017-01-28T02:24:53.333Z,98.63
2017-01-28T02:25:21.850Z,98.15
2017-01-28T02:25:50.473Z,98.54
2017-01-28T02:26:19.108Z,98.05
2017-01-28T02:26:47.727Z,98.73
2017-01-28T02:27:16.333Z,98.44
2017-01-28T02:27:44.965Z,98.92
2017-01-28T02:28:13.586Z,98.82
2017-01-28T02:28:42.210Z,98.92
2017-01-28T02:29:10.816Z,98.73
2017-01-28T02:29:39.444Z,98.44
2017-01-28T02:30:07.963Z,98.82
2017-01-28T02:30:36.572Z,98.82
2017-01-28T02:31:05.174Z,99.11
2017-01-28T02:31:33.696Z,99.11
2017-01-28T02:32:02.293Z,99.3
2017-01-28T02:32:30.914Z,99.21
2017-01-28T02:32:59.669Z,99.3
2017-01-28T02:33:28.173Z,99.69
2017-01-28T02:33:56.630Z,99.6
2017-01-28T02:34:25.261Z,99.26
2017-01-28T02:34:53.878Z,99.84
2017-01-28T02:35:22.511Z,99.69
2017-01-28T02:35:51.130Z,99.84
2017-01-28T02:36:19.675Z,99.45
2017-01-28T02:36:48.295Z,99.64
2017-01-28T02:37:16.926Z,99.99
2017-01-28T02:37:45.560Z,99.99
2017-01-28T02:38:14.169Z,99.99
2017-01-28T02:38:42.801Z,99.5
2017-01-28T02:39:11.297Z,99.99
2017-01-28T02:39:39.914Z,99.64
2017-01-28T02:40:08.537Z,99.55
2017-01-28T02:40:37.143Z,99.79
2017-01-28T02:41:05.753Z,99.79
2017-01-28T02:41:34.336Z,99.79
2017-01-28T02:42:02.984Z,99.88
2017-01-28T02:42:31.500Z,99.99
2017-01-28T02:43:00.131Z,99.99
2017-01-28T02:43:28.747Z,99.3
2017-01-28T02:43:57.395Z,99.98
2017-01-28T02:44:26.021Z,99.79
2017-01-28T02:44:54.632Z,99.79
2017-01-28T02:45:23.170Z,99.69
2017-01-28T02:45:51.792Z,98.92
2017-01-28T02:46:20.308Z,99.02
2017-01-28T02:46:48.918Z,98.73
2017-01-28T02:47:17.545Z,98.54
2017-01-28T02:47:46.066Z,98.73
2017-01-28T02:48:14.623Z,98.73
2017-01-28T02:48:43.242Z,98.73
2017-01-28T02:49:11.771Z,98.92
2017-01-28T02:49:40.370Z,98.82
2017-01-28T02:50:08.825Z,98.54
2017-01-28T02:50:37.424Z,98.82
2017-01-28T02:51:05.976Z,99.02
2017-01-28T02:51:34.480Z,98.73
2017-01-28T02:52:03.091Z,98.63
2017-01-28T02:52:31.618Z,98.92
2017-01-28T02:53:00.167Z,98.92
2017-01-28T02:53:28.772Z,98.82
2017-01-28T02:53:57.203Z,99.11
2017-01-28T02:54:25.822Z,99.02
2017-01-28T02:54:54.442Z,98.63
2017-01-28T02:55:23.054Z,98.44
2017-01-28T02:55:51.688Z,98.92
2017-01-28T02:56:20.162Z,98.54
2017-01-28T02:56:48.755Z,98.54
2017-01-28T02:57:17.378Z,98.73
2017-01-28T02:57:45.985Z,98.73
2017-01-28T02:58:14.543Z,98.44
2017-01-28T02:58:43.181Z,99.3
2017-01-28T02:59:11.732Z,98.82
2017-01-28T02:59:40.346Z,99.3
2017-01-28T03:00:08.804Z,99.3
2017-01-28T03:00:37.442Z,99.99
2017-01-28T03:01:06.269Z,99.84
2017-01-28T03:01:34.874Z,99.45
2017-01-28T03:02:03.504Z,99.99
2017-01-28T03:02:32.028Z,99.99
2017-01-28T03:03:00.635Z,99.99
2017-01-28T03:03:29.169Z,99.99
2017-01-28T03:03:57.685Z,99.84
2017-01-28T03:04:26.322Z,99.99
2017-01-28T03:04:54.817Z,99.99
2017-01-28T03:05:23.419Z,99.99
2017-01-28T03:05:52.028Z,99.99
2017-01-28T03:06:20.664Z,99.99
2017-01-28T03:06:49.198Z,99.99
2017-01-28T03:07:17.768Z,99.99
2017-01-28T03:07:46.385Z,99.99
2017-01-28T03:08:15.003Z,99.99
2017-01-28T03:08:43.634Z,99.99
2017-01-28T03:09:12.288Z,99.99
2017-01-28T03:09:40.908Z,99.64
2017-01-28T03:10:09.430Z,99.79
2017-01-28T03:10:38.060Z,99.99
2017-01-28T03:11:06.692Z,99.84
2017-01-28T03:11:35.315Z,99.79
2017-01-28T03:12:03.905Z,99.84
2017-01-28T03:12:32.407Z,99.21
2017-01-28T03:13:00.946Z,99.55
2017-01-28T03:13:29.551Z,99.45
2017-01-28T03:13:58.166Z,99.99
2017-01-28T03:14:26.813Z,99.99
2017-01-28T03:14:55.430Z,99.64
2017-01-28T03:15:24.044Z,99.74
2017-01-28T03:15:52.683Z,99.84
2017-01-28T03:16:21.281Z,99.74
2017-01-28T03:16:49.924Z,99.64
2017-01-28T03:17:18.460Z,99.45
2017-01-28T03:17:47.056Z,99.55
2017-01-28T03:18:15.696Z,99.84
2017-01-28T03:18:44.298Z,99.99
2017-01-28T03:19:12.815Z,99.99
2017-01-28T03:19:41.442Z,99.99
2017-01-28T03:20:10.073Z,99.99
2017-01-28T03:20:38.679Z,99.99
2017-01-28T03:21:07.294Z,99.99
2017-01-28T03:21:35.827Z,99.99
2017-01-28T03:22:04.369Z,99.99
2017-01-28T03:22:32.982Z,99.99
2017-01-28T03:23:01.499Z,99.99
2017-01-28T03:23:30.127Z,99.99
2017-01-28T03:23:58.755Z,99.99
2017-01-28T03:24:27.350Z,99.99
2017-01-28T03:24:55.918Z,99.99
2017-01-28T03:25:24.532Z,99.99
2017-01-28T03:25:53.141Z,99.99
2017-01-28T03:26:21.761Z,99.99
2017-01-28T03:26:50.368Z,99.99
2017-01-28T03:27:19.070Z,99.99
2017-01-28T03:27:49.491Z,99.99
2017-01-28T03:28:18.141Z,99.99
2017-01-28T03:28:46.756Z,99.99
2017-01-28T03:29:15.281Z,99.99
2017-01-28T03:29:43.899Z,99.99
2017-01-28T03:30:12.411Z,99.99
2017-01-28T03:30:40.876Z,99.99
2017-01-28T03:31:09.484Z,99.99
2017-01-28T03:31:38.106Z,99.55
2017-01-28T03:32:06.719Z,99.84
2017-01-28T03:32:35.360Z,99.55
2017-01-28T03:33:03.972Z,99.84
2017-01-28T03:33:32.494Z,99.64
2017-01-28T03:34:01.111Z,99.6
2017-01-28T03:34:29.749Z,99.64
2017-01-28T03:34:58.367Z,99.64
2017-01-28T03:35:26.959Z,99.69
2017-01-28T03:35:55.543Z,99.6
2017-01-28T03:36:24.061Z,99.07
2017-01-28T03:36:52.664Z,98.92
2017-01-28T03:37:21.207Z,99.21
2017-01-28T03:37:49.960Z,99.02
2017-01-28T03:38:18.590Z,99.16
2017-01-28T03:38:47.205Z,99.11
2017-01-28T03:39:15.785Z,99.21
2017-01-28T03:39:44.413Z,98.92
2017-01-28T03:40:13.000Z,98.87
2017-01-28T03:40:41.601Z,99.16
2017-01-28T03:41:10.216Z,98.77
2017-01-28T03:41:38.754Z,98.97
2017-01-28T03:42:07.362Z,99.55
2017-01-28T03:42:36.086Z,99.35
2017-01-28T03:43:04.701Z,99.16
2017-01-28T03:43:33.179Z,99.64
2017-01-28T03:44:01.788Z,99.55
2017-01-28T03:44:30.475Z,99.99
2017-01-28T03:44:59.079Z,99.99
2017-01-28T03:45:27.680Z,99.99
2017-01-28T03:45:56.183Z,99.99
2017-01-28T03:46:24.678Z,99.99
2017-01-28T03:46:53.272Z,99.99
2017-01-28T03:47:21.872Z,99.99
2017-01-28T03:47:50.492Z,99.99
2017-01-28T03:48:19.088Z,99.99
2017-01-28T03:48:47.647Z,99.84
2017-01-28T03:49:16.093Z,99.99
2017-01-28T03:49:44.711Z,99.99
2017-01-28T03:50:13.146Z,99.99
2017-01-28T03:50:41.599Z,99.99
2017-01-28T03:51:10.212Z,99.99
2017-01-28T03:51:38.798Z,99.99
2017-01-28T03:52:07.390Z,99.99
2017-01-28T03:52:36.017Z,99.99
2017-01-28T03:53:04.537Z,99.99
2017-01-28T03:53:33.140Z,99.99
2017-01-28T03:54:01.644Z,99.99
2017-01-28T03:54:30.271Z,99.99
2017-01-28T03:54:58.879Z,99.99
2017-01-28T03:55:27.472Z,99.99
2017-01-28T03:55:56.100Z,99.84
2017-01-28T03:56:24.699Z,99.99
2017-01-28T03:56:53.349Z,99.99
2017-01-28T03:57:21.809Z,99.99
2017-01-28T03:57:50.320Z,99.99
2017-01-28T03:58:18.807Z,99.99
2017-01-28T03:58:47.330Z,99.99
2017-01-28T03:59:15.964Z,99.99
2017-01-28T03:59:44.574Z,99.99
2017-01-28T04:00:13.186Z,99.99
2017-01-28T04:00:41.807Z,99.99
2017-01-28T04:01:10.427Z,99.99
2017-01-28T04:01:39.028Z,99.99
2017-01-28T04:02:07.535Z,99.99
2017-01-28T04:02:36.011Z,99.99
2017-01-28T04:03:04.553Z,99.99
2017-01-28T04:03:33.223Z,99.99
2017-01-28T04:04:01.638Z,99.99
2017-01-28T04:04:30.281Z,99.99
2017-01-28T04:04:58.908Z,99.99
2017-01-28T04:05:27.517Z,99.99
2017-01-28T04:05:56.109Z,99.99
2017-01-28T04:06:24.708Z,99.99
2017-01-28T04:06:53.203Z,99.99
2017-01-28T04:07:21.813Z,99.99
2017-01-28T04:07:50.371Z,99.99
2017-01-28T04:08:18.996Z,99.99
2017-01-28T04:08:47.509Z,99.99
2017-01-28T04:09:16.131Z,99.99
2017-01-28T04:09:44.747Z,99.99
2017-01-28T04:10:13.287Z,99.99
2017-01-28T04:10:41.796Z,99.99
2017-01-28T04:11:10.332Z,99.99
2017-01-28T04:11:39.037Z,99.99
2017-01-28T04:12:09.250Z,99.99
2017-01-28T04:12:37.898Z,99.99
2017-01-28T04:13:06.417Z,99.99
2017-01-28T04:13:34.933Z,99.99
2017-01-28T04:14:03.457Z,99.99
2017-01-28T04:14:32.067Z,99.99
2017-01-28T04:15:00.961Z,99.99
2017-01-28T04:15:30.745Z,99.99
2017-01-28T04:15:59.281Z,99.99
2017-01-28T04:16:27.887Z,99.99
2017-01-28T04:16:56.501Z,99.99
2017-01-28T04:17:25.030Z,99.99
2017-01-28T04:17:53.646Z,99.99
2017-01-28T04:18:22.089Z,99.99
2017-01-28T04:18:50.712Z,99.99
2017-01-28T04:19:19.393Z,99.99
2017-01-28T04:19:47.905Z,99.99
2017-01-28T04:20:16.566Z,99.99
2017-01-28T04:20:45.186Z,99.99
2017-01-28T04:21:13.853Z,99.99
2017-01-28T04:21:42.438Z,99.99
2017-01-28T04:22:11.066Z,99.99
2017-01-28T04:22:39.740Z,99.99
2017-01-28T04:23:08.262Z,99.99
2017-01-28T04:23:36.937Z,99.99
2017-01-28T04:24:06.696Z,99.99
2017-01-28T04:24:35.332Z,99.99
2017-01-28T04:25:03.953Z,99.99
2017-01-28T04:25:32.567Z,99.99
2017-01-28T04:26:01.102Z,99.99
2017-01-28T04:26:29.649Z,99.99
2017-01-28T04:26:58.161Z,99.99
2017-01-28T04:27:26.770Z,99.99
2017-01-28T04:27:55.389Z,99.99
2017-01-28T04:28:24.004Z,99.99
2017-01-28T04:28:52.538Z,99.99
2017-01-28T04:29:21.150Z,99.99
2017-01-28T04:29:49.763Z,99.99
2017-01-28T04:30:18.379Z,99.99
2017-01-28T04:30:46.989Z,99.99
2017-01-28T04:31:15.575Z,99.99
2017-01-28T04:31:44.192Z,99.99
2017-01-28T04:32:12.833Z,99.99
2017-01-28T04:32:41.383Z,99.99
2017-01-28T04:33:09.908Z,99.99
2017-01-28T04:33:38.451Z,99.99
2017-01-28T04:34:07.086Z,99.99
2017-01-28T04:34:35.528Z,99.99
2017-01-28T04:35:04.158Z,99.99
2017-01-28T04:35:32.768Z,99.99
2017-01-28T04:36:01.366Z,99.99
2017-01-28T04:36:29.778Z,99.99
2017-01-28T04:36:58.409Z,99.99
2017-01-28T04:37:27.029Z,99.99
2017-01-28T04:37:55.659Z,99.99
2017-01-28T04:38:24.240Z,99.99
2017-01-28T04:38:52.859Z,99.99
2017-01-28T04:39:21.465Z,99.99
2017-01-28T04:39:50.056Z,99.99
2017-01-28T04:40:18.486Z,99.99
2017-01-28T04:40:47.148Z,99.99
2017-01-28T04:41:15.776Z,99.99
2017-01-28T04:41:44.394Z,99.99
2017-01-28T04:42:12.900Z,99.99
2017-01-28T04:42:41.534Z,99.99
2017-01-28T04:43:10.028Z,99.99
2017-01-28T04:43:38.636Z,99.99
2017-01-28T04:44:07.238Z,99.99
2017-01-28T04:44:35.751Z,99.99
2017-01-28T04:45:04.279Z,99.99
2017-01-28T04:45:32.797Z,99.99
2017-01-28T04:46:01.401Z,99.99
2017-01-28T04:46:29.914Z,99.99
2017-01-28T04:46:58.515Z,99.99
2017-01-28T04:47:27.123Z,99.99
2017-01-28T04:47:55.722Z,99.99
2017-01-28T04:48:24.351Z,99.99
2017-01-28T04:48:52.956Z,99.99
2017-01-28T04:49:21.568Z,99.99
2017-01-28T04:49:50.182Z,99.99
2017-01-28T04:50:18.819Z,99.99
2017-01-28T04:50:47.393Z,99.99
2017-01-28T04:51:15.995Z,99.99
2017-01-28T04:51:44.532Z,99.99
2017-01-28T04:52:13.184Z,99.99
2017-01-28T04:52:41.722Z,99.99
2017-01-28T04:53:10.293Z,99.99
2017-01-28T04:53:38.800Z,99.99
2017-01-28T04:54:07.450Z,99.99
2017-01-28T04:54:36.012Z,99.99
2017-01-28T04:55:04.556Z,99.99
2017-01-28T04:55:33.171Z,99.99
2017-01-28T04:56:01.659Z,99.99
2017-01-28T04:56:30.163Z,99.99
2017-01-28T04:56:58.798Z,99.99
2017-01-28T04:57:27.648Z,99.99
2017-01-28T04:57:56.156Z,99.99
2017-01-28T04:58:24.838Z,99.99
2017-01-28T04:58:53.460Z,99.99
2017-01-28T04:59:22.152Z,99.99
2017-01-28T04:59:50.670Z,99.99
2017-01-28T05:00:19.204Z,99.99
2017-01-28T05:00:47.825Z,99.99
2017-01-28T05:01:16.447Z,99.99
2017-01-28T05:01:45.062Z,99.99
2017-01-28T05:02:13.701Z,99.99
2017-01-28T05:02:42.312Z,99.99
2017-01-28T05:03:10.921Z,99.99
2017-01-28T05:03:39.491Z,99.99
2017-01-28T05:04:08.102Z,99.99
2017-01-28T05:04:36.588Z,99.99
2017-01-28T05:05:05.183Z,99.99
2017-01-28T05:05:33.837Z,99.99
2017-01-28T05:06:02.454Z,99.99
2017-01-28T05:06:30.960Z,99.99
2017-01-28T05:06:59.561Z,99.99
2017-01-28T05:07:28.210Z,99.99
2017-01-28T05:07:56.722Z,99.99
2017-01-28T05:08:25.338Z,99.99
2017-01-28T05:08:53.818Z,99.99
2017-01-28T05:09:22.437Z,99.99
2017-01-28T05:09:51.053Z,99.99
2017-01-28T05:10:19.675Z,99.99
2017-01-28T05:10:48.298Z,99.99
2017-01-28T05:11:16.908Z,99.99
2017-01-28T05:11:45.425Z,99.99
2017-01-28T05:12:14.082Z,99.99
2017-01-28T05:12:42.713Z,99.99
2017-01-28T05:13:11.323Z,99.99
2017-01-28T05:13:39.930Z,99.99
2017-01-28T05:14:08.546Z,99.99
2017-01-28T05:14:37.133Z,99.99
2017-01-28T05:15:05.560Z,99.99
2017-01-28T05:15:34.161Z,99.99
2017-01-28T05:16:02.788Z,99.99
2017-01-28T05:16:31.418Z,99.99
2017-01-28T05:17:00.050Z,99.99
2017-01-28T05:17:28.815Z,99.99
2017-01-28T05:17:57.429Z,99.99
2017-01-28T05:18:26.084Z,99.99
2017-01-28T05:18:54.706Z,99.99
2017-01-28T05:19:23.332Z,99.99
2017-01-28T05:19:51.942Z,99.99
2017-01-28T05:20:20.478Z,99.99
2017-01-28T05:20:49.107Z,99.99
2017-01-28T05:21:17.724Z,99.99
2017-01-28T05:21:46.352Z,99.99
2017-01-28T05:22:14.865Z,99.99
2017-01-28T05:22:43.473Z,99.99
2017-01-28T05:23:12.091Z,99.99
2017-01-28T05:23:40.728Z,99.99
2017-01-28T05:24:09.358Z,99.99
2017-01-28T05:24:37.965Z,99.99
2017-01-28T05:25:06.577Z,99.99
2017-01-28T05:25:35.103Z,99.99
2017-01-28T05:26:03.729Z,99.99
2017-01-28T05:26:32.281Z,99.99
2017-01-28T05:27:00.877Z,99.99
2017-01-28T05:27:29.400Z,99.99
2017-01-28T05:27:57.824Z,99.99
2017-01-28T05:28:26.342Z,99.99
2017-01-28T05:28:54.983Z,99.99
2017-01-28T05:29:23.638Z,99.99
2017-01-28T05:29:52.141Z,99.99
2017-01-28T05:30:20.654Z,99.99
2017-01-28T05:30:49.267Z,99.99
2017-01-28T05:31:17.790Z,99.99
2017-01-28T05:31:46.363Z,99.99
2017-01-28T05:32:14.915Z,99.99
2017-01-28T05:32:43.525Z,99.99
2017-01-28T05:33:12.054Z,99.99
2017-01-28T05:33:40.728Z,99.99
2017-01-28T05:34:09.266Z,99.99
2017-01-28T05:34:37.876Z,99.99
2017-01-28T05:35:06.508Z,99.99
2017-01-28T05:35:35.092Z,99.99
2017-01-28T05:36:03.637Z,99.99
2017-01-28T05:36:32.272Z,99.99
2017-01-28T05:37:00.880Z,99.99
2017-01-28T05:37:29.409Z,99.99
2017-01-28T05:37:58.033Z,99.99
2017-01-28T05:38:26.646Z,99.99
2017-01-28T05:38:55.150Z,99.99
2017-01-28T05:39:23.667Z,99.99
2017-01-28T05:39:52.282Z,99.99
2017-01-28T05:40:20.784Z,99.99
2017-01-28T05:40:49.358Z,99.99
2017-01-28T05:41:17.969Z,99.99
2017-01-28T05:41:46.603Z,99.99
2017-01-28T05:42:15.241Z,99.99
2017-01-28T05:42:43.855Z,99.99
2017-01-28T05:43:12.503Z,99.99
2017-01-28T05:43:41.012Z,99.99
2017-01-28T05:44:09.641Z,99.99
2017-01-28T05:44:38.249Z,99.99
2017-01-28T05:45:06.836Z,99.99
2017-01-28T05:45:35.359Z,99.99
2017-01-28T05:46:03.970Z,99.99
2017-01-28T05:46:32.577Z,99.99
2017-01-28T05:47:01.217Z,99.99
2017-01-28T05:47:29.753Z,99.99
2017-01-28T05:47:58.354Z,99.99
2017-01-28T05:48:26.869Z,99.99
2017-01-28T05:48:55.688Z,99.99
2017-01-28T05:49:24.300Z,99.99
2017-01-28T05:49:52.915Z,99.99
2017-01-28T05:50:21.512Z,99.99
2017-01-28T05:50:50.038Z,99.99
2017-01-28T05:51:18.660Z,99.99
2017-01-28T05:51:47.270Z,99.99
2017-01-28T05:52:15.817Z,99.99
2017-01-28T05:52:44.274Z,99.99
2017-01-28T05:53:12.917Z,99.99
2017-01-28T05:53:41.553Z,99.99
2017-01-28T05:54:10.093Z,99.99
2017-01-28T05:54:38.601Z,99.99
2017-01-28T05:55:07.224Z,99.99
2017-01-28T05:55:35.743Z,99.99
2017-01-28T05:56:04.347Z,99.99
2017-01-28T05:56:32.974Z,99.99
2017-01-28T05:57:01.468Z,99.99
2017-01-28T05:57:30.000Z,99.99
2017-01-28T05:57:58.610Z,99.99
2017-01-28T05:58:27.232Z,99.99
2017-01-28T05:58:55.747Z,99.99
2017-01-28T05:59:24.247Z,99.99
2017-01-28T05:59:52.847Z,99.99
2017-01-28T06:00:21.502Z,99.99
2017-01-28T06:00:50.143Z,99.99
2017-01-28T06:01:18.563Z,99.99
2017-01-28T06:01:47.181Z,99.99
2017-01-28T06:02:15.796Z,99.99
2017-01-28T06:02:44.448Z,99.99
2017-01-28T06:03:13.086Z,99.99
2017-01-28T06:03:41.619Z,99.99
2017-01-28T06:04:10.242Z,99.99
2017-01-28T06:04:38.864Z,99.99
2017-01-28T06:05:07.505Z,99.99
2017-01-28T06:05:36.128Z,99.99
2017-01-28T06:06:04.736Z,99.99
2017-01-28T06:06:33.350Z,99.99
2017-01-28T06:07:01.974Z,99.99
2017-01-28T06:07:30.580Z,99.99
2017-01-28T06:07:59.207Z,99.99
2017-01-28T06:08:27.837Z,99.99